sensor_id;sensor_type;location;lat;lon;timestamp;pressure;altitude;pressure_sealevel;temperature;humidity
21300;BME280;10809;49.476;11.016;2024-02-28T00:00:10;98255.78;;;6.28;57.87
21300;BME280;10809;49.476;11.016;2024-02-28T00:02:41;98257.53;;;6.28;57.91
21300;BME280;10809;49.476;11.016;2024-02-28T00:05:11;98267.19;;;6.27;57.81
21300;BME280;10809;49.476;11.016;2024-02-28T00:07:42;98260.22;;;6.26;57.73
21300;BME280;10809;49.476;11.016;2024-02-28T00:10:13;98259.34;;;6.26;57.79
21300;BME280;10809;49.476;11.016;2024-02-28T00:12:44;98259.34;;;6.26;57.66
21300;BME280;10809;49.476;11.016;2024-02-28T00:15:14;98262.84;;;6.26;57.91
21300;BME280;10809;49.476;11.016;2024-02-28T00:17:45;98269.03;;;6.25;57.90
21300;BME280;10809;49.476;11.016;2024-02-28T00:20:16;98259.41;;;6.24;58.03
21300;BME280;10809;49.476;11.016;2024-02-28T00:22:46;98264.59;;;6.26;57.99
21300;BME280;10809;49.476;11.016;2024-02-28T00:25:17;98266.41;;;6.25;58.04
21300;BME280;10809;49.476;11.016;2024-02-28T00:27:47;98264.59;;;6.26;58.07
21300;BME280;10809;49.476;11.016;2024-02-28T00:30:18;98260.22;;;6.26;58.06
21300;BME280;10809;49.476;11.016;2024-02-28T00:32:48;98260.16;;;6.28;58.07
21300;BME280;10809;49.476;11.016;2024-02-28T00:35:19;98258.41;;;6.28;58.07
21300;BME280;10809;49.476;11.016;2024-02-28T00:37:49;98263.66;;;6.28;57.95
21300;BME280;10809;49.476;11.016;2024-02-28T00:40:19;98259.28;;;6.27;57.92
21300;BME280;10809;49.476;11.016;2024-02-28T00:42:50;98260.16;;;6.28;58.05
21300;BME280;10809;49.476;11.016;2024-02-28T00:45:20;98258.41;;;6.28;57.85
21300;BME280;10809;49.476;11.016;2024-02-28T00:47:51;98254.03;;;6.27;57.98
21300;BME280;10809;49.476;11.016;2024-02-28T00:50:21;98259.28;;;6.27;58.00
21300;BME280;10809;49.476;11.016;2024-02-28T00:52:52;98259.28;;;6.27;57.92
21300;BME280;10809;49.476;11.016;2024-02-28T00:55:22;98261.97;;;6.26;58.05
21300;BME280;10809;49.476;11.016;2024-02-28T00:57:53;98263.78;;;6.25;57.70
21300;BME280;10809;49.476;11.016;2024-02-28T01:00:26;98263.81;;;6.24;57.77
21300;BME280;10809;49.476;11.016;2024-02-28T01:02:56;98267.34;;;6.23;57.86
21300;BME280;10809;49.476;11.016;2024-02-28T01:05:27;98263.97;;;6.19;57.79
21300;BME280;10809;49.476;11.016;2024-02-28T01:07:57;98262.28;;;6.18;57.89
21300;BME280;10809;49.476;11.016;2024-02-28T01:10:28;98258.84;;;6.16;57.71
21300;BME280;10809;49.476;11.016;2024-02-28T01:12:58;98259.81;;;6.14;57.71
21300;BME280;10809;49.476;11.016;2024-02-28T01:15:29;98261.66;;;6.12;57.74
21300;BME280;10809;49.476;11.016;2024-02-28T01:18:02;98261.72;;;6.10;57.91
21300;BME280;10809;49.476;11.016;2024-02-28T01:20:33;98266.19;;;6.08;57.97
21300;BME280;10809;49.476;11.016;2024-02-28T01:23:03;98261.81;;;6.07;57.76
21300;BME280;10809;49.476;11.016;2024-02-28T01:25:34;98269.72;;;6.07;57.98
21300;BME280;10809;49.476;11.016;2024-02-28T01:28:04;98264.50;;;6.05;57.93
21300;BME280;10809;49.476;11.016;2024-02-28T01:30:35;98261.88;;;6.05;57.94
21300;BME280;10809;49.476;11.016;2024-02-28T01:33:05;98264.50;;;6.05;57.94
21300;BME280;10809;49.476;11.016;2024-02-28T01:35:36;98267.19;;;6.04;57.92
21300;BME280;10809;49.476;11.016;2024-02-28T01:38:06;98268.13;;;6.03;58.08
21300;BME280;10809;49.476;11.016;2024-02-28T01:40:36;98275.09;;;6.04;57.98
21300;BME280;10809;49.476;11.016;2024-02-28T01:43:07;98267.25;;;6.02;58.03
21300;BME280;10809;49.476;11.016;2024-02-28T01:45:38;98262.00;;;6.02;58.00
21300;BME280;10809;49.476;11.016;2024-02-28T01:48:09;98256.88;;;5.99;57.89
21300;BME280;10809;49.476;11.016;2024-02-28T01:50:41;98263.09;;;5.97;57.92
21300;BME280;10809;49.476;11.016;2024-02-28T01:53:12;98257.97;;;5.94;58.00
21300;BME280;10809;49.476;11.016;2024-02-28T01:55:43;98261.53;;;5.93;58.14
21300;BME280;10809;49.476;11.016;2024-02-28T01:58:14;98272.03;;;5.93;58.12
21300;BME280;10809;49.476;11.016;2024-02-28T02:00:45;98269.47;;;5.91;58.13
21300;BME280;10809;49.476;11.016;2024-02-28T02:03:16;98272.97;;;5.90;58.16
21300;BME280;10809;49.476;11.016;2024-02-28T02:05:47;98272.97;;;5.90;58.00
21300;BME280;10809;49.476;11.016;2024-02-28T02:08:17;98273.03;;;5.89;58.18
21300;BME280;10809;49.476;11.016;2024-02-28T02:10:48;98282.66;;;5.90;58.20
21300;BME280;10809;49.476;11.016;2024-02-28T02:13:18;98280.91;;;5.89;58.26
21300;BME280;10809;49.476;11.016;2024-02-28T02:15:48;98290.53;;;5.90;57.95
21300;BME280;10809;49.476;11.016;2024-02-28T02:18:19;98299.31;;;5.89;58.41
21300;BME280;10809;49.476;11.016;2024-02-28T02:20:50;98301.09;;;5.88;58.07
21300;BME280;10809;49.476;11.016;2024-02-28T02:23:24;98302.00;;;5.87;58.22
21300;BME280;10809;49.476;11.016;2024-02-28T02:25:55;98308.22;;;5.85;58.34
21300;BME280;10809;49.476;11.016;2024-02-28T02:28:25;98310.00;;;5.84;58.14
21300;BME280;10809;49.476;11.016;2024-02-28T02:30:55;98309.16;;;5.84;58.30
21300;BME280;10809;49.476;11.016;2024-02-28T02:33:26;98309.16;;;5.84;58.15
21300;BME280;10809;49.476;11.016;2024-02-28T02:35:56;98323.19;;;5.83;58.31
21300;BME280;10809;49.476;11.016;2024-02-28T02:38:27;98324.00;;;5.85;58.36
21300;BME280;10809;49.476;11.016;2024-02-28T02:40:57;98335.38;;;5.85;58.45
21300;BME280;10809;49.476;11.016;2024-02-28T02:43:28;98341.53;;;5.84;58.34
21300;BME280;10809;49.476;11.016;2024-02-28T02:45:58;98343.25;;;5.85;58.52
21300;BME280;10809;49.476;11.016;2024-02-28T02:48:29;98350.22;;;5.86;58.43
21300;BME280;10809;49.476;11.016;2024-02-28T02:51:02;98352.84;;;5.86;58.51
21300;BME280;10809;49.476;11.016;2024-02-28T02:53:33;98356.34;;;5.87;58.62
21300;BME280;10809;49.476;11.016;2024-02-28T02:56:03;98356.34;;;5.87;58.39
21300;BME280;10809;49.476;11.016;2024-02-28T02:58:34;98363.28;;;5.88;58.42
21300;BME280;10809;49.476;11.016;2024-02-28T03:01:04;98362.38;;;5.89;58.38
21300;BME280;10809;49.476;11.016;2024-02-28T03:03:35;98358.91;;;5.88;58.49
21300;BME280;10809;49.476;11.016;2024-02-28T03:06:07;98367.63;;;5.89;58.53
21300;BME280;10809;49.476;11.016;2024-02-28T03:08:40;98365.88;;;5.89;58.52
21300;BME280;10809;49.476;11.016;2024-02-28T03:11:10;98378.09;;;5.90;58.09
21300;BME280;10809;49.476;11.016;2024-02-28T03:13:44;98378.94;;;5.91;58.86
21300;BME280;10809;49.476;11.016;2024-02-28T03:16:15;98380.66;;;5.92;58.74
21300;BME280;10809;49.476;11.016;2024-02-28T03:18:45;98384.09;;;5.94;58.77
21300;BME280;10809;49.476;11.016;2024-02-28T03:21:16;98383.16;;;5.95;58.75
21300;BME280;10809;49.476;11.016;2024-02-28T03:23:47;98384.03;;;5.95;58.67
21300;BME280;10809;49.476;11.016;2024-02-28T03:26:17;98382.28;;;5.96;58.70
21300;BME280;10809;49.476;11.016;2024-02-28T03:28:48;98387.47;;;5.97;58.73
21300;BME280;10809;49.476;11.016;2024-02-28T03:31:18;98390.06;;;5.99;59.03
21300;BME280;10809;49.476;11.016;2024-02-28T03:33:49;98384.84;;;5.97;58.89
21300;BME280;10809;49.476;11.016;2024-02-28T03:36:19;98390.88;;;5.99;58.85
21300;BME280;10809;49.476;11.016;2024-02-28T03:38:50;98392.69;;;5.99;58.60
21300;BME280;10809;49.476;11.016;2024-02-28T03:41:20;98397.88;;;6.00;58.68
21300;BME280;10809;49.476;11.016;2024-02-28T03:43:50;98400.50;;;6.00;58.80
21300;BME280;10809;49.476;11.016;2024-02-28T03:46:21;98406.53;;;6.02;58.63
21300;BME280;10809;49.476;11.016;2024-02-28T03:48:51;98407.47;;;6.01;58.82
21300;BME280;10809;49.476;11.016;2024-02-28T03:51:22;98407.41;;;6.03;58.92
21300;BME280;10809;49.476;11.016;2024-02-28T03:53:53;98415.28;;;6.03;58.87
21300;BME280;10809;49.476;11.016;2024-02-28T03:56:25;98414.44;;;6.02;58.67
21300;BME280;10809;49.476;11.016;2024-02-28T03:58:55;98428.38;;;6.04;58.96
21300;BME280;10809;49.476;11.016;2024-02-28T04:01:26;98430.16;;;6.04;58.89
21300;BME280;10809;49.476;11.016;2024-02-28T04:03:56;98433.69;;;6.03;58.95
21300;BME280;10809;49.476;11.016;2024-02-28T04:06:27;98435.41;;;6.04;58.77
21300;BME280;10809;49.476;11.016;2024-02-28T04:08:58;98434.63;;;6.02;58.88
21300;BME280;10809;49.476;11.016;2024-02-28T04:11:28;98426.72;;;6.02;58.80
21300;BME280;10809;49.476;11.016;2024-02-28T04:13:58;98432.00;;;6.02;58.81
21300;BME280;10809;49.476;11.016;2024-02-28T04:16:29;98438.13;;;6.01;58.84
21300;BME280;10809;49.476;11.016;2024-02-28T04:18:59;98443.41;;;6.01;58.71
21300;BME280;10809;49.476;11.016;2024-02-28T04:21:30;98436.44;;;6.00;58.72
21300;BME280;10809;49.476;11.016;2024-02-28T04:24:00;98433.81;;;6.00;58.86
21300;BME280;10809;49.476;11.016;2024-02-28T04:26:31;98445.25;;;5.99;58.95
21300;BME280;10809;49.476;11.016;2024-02-28T04:29:01;98443.50;;;5.98;58.63
21300;BME280;10809;49.476;11.016;2024-02-28T04:31:38;98439.16;;;5.97;58.77
21300;BME280;10809;49.476;11.016;2024-02-28T04:34:08;98445.34;;;5.96;58.70
21300;BME280;10809;49.476;11.016;2024-02-28T04:36:38;98445.41;;;5.94;58.48
21300;BME280;10809;49.476;11.016;2024-02-28T04:39:09;98447.22;;;5.92;58.63
21300;BME280;10809;49.476;11.016;2024-02-28T04:41:40;98450.75;;;5.91;58.67
21300;BME280;10809;49.476;11.016;2024-02-28T04:44:10;98454.28;;;5.90;58.53
21300;BME280;10809;49.476;11.016;2024-02-28T04:46:40;98447.38;;;5.88;58.59
21300;BME280;10809;49.476;11.016;2024-02-28T04:49:11;98448.28;;;5.87;58.79
21300;BME280;10809;49.476;11.016;2024-02-28T04:51:41;98449.19;;;5.86;58.84
21300;BME280;10809;49.476;11.016;2024-02-28T04:54:12;98450.09;;;5.85;58.98
21300;BME280;10809;49.476;11.016;2024-02-28T04:56:42;98452.72;;;5.85;59.00
21300;BME280;10809;49.476;11.016;2024-02-28T04:59:13;98455.41;;;5.83;59.00
21300;BME280;10809;49.476;11.016;2024-02-28T05:01:43;98449.25;;;5.84;58.91
21300;BME280;10809;49.476;11.016;2024-02-28T05:04:16;98446.66;;;5.83;58.83
21300;BME280;10809;49.476;11.016;2024-02-28T05:06:46;98456.34;;;5.82;58.78
21300;BME280;10809;49.476;11.016;2024-02-28T05:09:16;98453.75;;;5.81;58.56
21300;BME280;10809;49.476;11.016;2024-02-28T05:11:47;98459.06;;;5.79;58.55
21300;BME280;10809;49.476;11.016;2024-02-28T05:14:17;98456.50;;;5.78;58.36
21300;BME280;10809;49.476;11.016;2024-02-28T05:16:48;98453.06;;;5.76;58.86
21300;BME280;10809;49.476;11.016;2024-02-28T05:19:18;98458.31;;;5.76;58.87
21300;BME280;10809;49.476;11.016;2024-02-28T05:21:49;98453.09;;;5.74;58.63
21300;BME280;10809;49.476;11.016;2024-02-28T05:24:19;98456.69;;;5.72;59.10
21300;BME280;10809;49.476;11.016;2024-02-28T05:26:50;98454.97;;;5.71;58.68
21300;BME280;10809;49.476;11.016;2024-02-28T05:29:23;98454.03;;;5.72;58.77
21300;BME280;10809;49.476;11.016;2024-02-28T05:31:53;98457.66;;;5.69;59.23
21300;BME280;10809;49.476;11.016;2024-02-28T05:34:24;98453.25;;;5.70;58.80
21300;BME280;10809;49.476;11.016;2024-02-28T05:36:54;98458.50;;;5.70;59.25
21300;BME280;10809;49.476;11.016;2024-02-28T05:39:25;98461.97;;;5.70;59.19
21300;BME280;10809;49.476;11.016;2024-02-28T05:41:55;98474.28;;;5.70;59.13
21300;BME280;10809;49.476;11.016;2024-02-28T05:44:25;98474.28;;;5.70;59.31
21300;BME280;10809;49.476;11.016;2024-02-28T05:46:56;98466.41;;;5.70;59.28
21300;BME280;10809;49.476;11.016;2024-02-28T05:49:26;98474.28;;;5.70;59.25
21300;BME280;10809;49.476;11.016;2024-02-28T05:52:00;98474.28;;;5.70;59.13
21300;BME280;10809;49.476;11.016;2024-02-28T05:54:30;98469.91;;;5.69;59.10
21300;BME280;10809;49.476;11.016;2024-02-28T05:57:04;98475.22;;;5.67;59.10
21300;BME280;10809;49.476;11.016;2024-02-28T05:59:34;98478.72;;;5.68;59.07
21300;BME280;10809;49.476;11.016;2024-02-28T06:02:05;98472.63;;;5.66;59.01
21300;BME280;10809;49.476;11.016;2024-02-28T06:04:35;98477.88;;;5.66;59.12
21300;BME280;10809;49.476;11.016;2024-02-28T06:07:06;98468.31;;;5.65;58.86
21300;BME280;10809;49.476;11.016;2024-02-28T06:09:36;98474.47;;;5.64;58.80
21300;BME280;10809;49.476;11.016;2024-02-28T06:12:07;98485.88;;;5.63;59.18
21300;BME280;10809;49.476;11.016;2024-02-28T06:14:37;98492.91;;;5.62;59.16
21300;BME280;10809;49.476;11.016;2024-02-28T06:17:08;98494.69;;;5.62;59.16
21300;BME280;10809;49.476;11.016;2024-02-28T06:19:38;98501.69;;;5.61;59.21
21300;BME280;10809;49.476;11.016;2024-02-28T06:22:09;98506.94;;;5.61;59.18
21300;BME280;10809;49.476;11.016;2024-02-28T06:24:39;98513.06;;;5.62;59.57
21300;BME280;10809;49.476;11.016;2024-02-28T06:27:10;98510.44;;;5.62;59.53
21300;BME280;10809;49.476;11.016;2024-02-28T06:29:43;98514.75;;;5.63;59.29
21300;BME280;10809;49.476;11.016;2024-02-28T06:32:13;98515.69;;;5.62;59.15
21300;BME280;10809;49.476;11.016;2024-02-28T06:34:43;98521.75;;;5.64;59.38
21300;BME280;10809;49.476;11.016;2024-02-28T06:37:14;98531.34;;;5.65;59.45
21300;BME280;10809;49.476;11.016;2024-02-28T06:39:44;98533.09;;;5.64;59.30
21300;BME280;10809;49.476;11.016;2024-02-28T06:42:15;98538.31;;;5.66;59.25
21300;BME280;10809;49.476;11.016;2024-02-28T06:44:45;98538.31;;;5.66;59.40
21300;BME280;10809;49.476;11.016;2024-02-28T06:47:16;98549.69;;;5.66;59.36
21300;BME280;10809;49.476;11.016;2024-02-28T06:49:46;98546.13;;;5.67;59.51
21300;BME280;10809;49.476;11.016;2024-02-28T06:52:16;98546.09;;;5.69;59.48
21300;BME280;10809;49.476;11.016;2024-02-28T06:54:47;98550.44;;;5.70;59.61
21300;BME280;10809;49.476;11.016;2024-02-28T06:57:18;98550.41;;;5.71;59.62
21300;BME280;10809;49.476;11.016;2024-02-28T06:59:48;98559.13;;;5.72;59.55
21300;BME280;10809;49.476;11.016;2024-02-28T07:02:19;98563.50;;;5.73;59.51
21300;BME280;10809;49.476;11.016;2024-02-28T07:04:50;98561.69;;;5.75;59.56
21300;BME280;10809;49.476;11.016;2024-02-28T07:07:20;98569.56;;;5.75;60.06
21300;BME280;10809;49.476;11.016;2024-02-28T07:09:51;98575.59;;;5.77;59.42
21300;BME280;10809;49.476;11.016;2024-02-28T07:12:22;98577.34;;;5.78;59.83
21300;BME280;10809;49.476;11.016;2024-02-28T07:14:52;98579.91;;;5.79;59.89
21300;BME280;10809;49.476;11.016;2024-02-28T07:17:23;98578.13;;;5.80;59.80
21300;BME280;10809;49.476;11.016;2024-02-28T07:19:53;98585.97;;;5.81;59.79
21300;BME280;10809;49.476;11.016;2024-02-28T07:22:24;98598.16;;;5.84;59.59
21300;BME280;10809;49.476;11.016;2024-02-28T07:24:54;98594.63;;;5.85;59.84
21300;BME280;10809;49.476;11.016;2024-02-28T07:27:25;98602.44;;;5.86;59.88
21300;BME280;10809;49.476;11.016;2024-02-28T07:29:55;98602.41;;;5.88;59.91
21300;BME280;10809;49.476;11.016;2024-02-28T07:32:26;98600.59;;;5.90;59.93
21300;BME280;10809;49.476;11.016;2024-02-28T07:34:56;98596.19;;;5.90;59.83
21300;BME280;10809;49.476;11.016;2024-02-28T07:37:26;98603.13;;;5.93;59.76
21300;BME280;10809;49.476;11.016;2024-02-28T07:39:57;98603.91;;;5.95;59.84
21300;BME280;10809;49.476;11.016;2024-02-28T07:42:27;98602.09;;;5.97;59.88
21300;BME280;10809;49.476;11.016;2024-02-28T07:44:58;98606.44;;;5.98;59.80
21300;BME280;10809;49.476;11.016;2024-02-28T07:47:28;98607.25;;;6.00;59.70
21300;BME280;10809;49.476;11.016;2024-02-28T07:49:59;98614.22;;;6.01;59.74
21300;BME280;10809;49.476;11.016;2024-02-28T07:52:29;98622.97;;;6.01;59.77
21300;BME280;10809;49.476;11.016;2024-02-28T07:55:00;98618.59;;;6.02;59.97
21300;BME280;10809;49.476;11.016;2024-02-28T07:57:31;98621.16;;;6.03;59.76
21300;BME280;10809;49.476;11.016;2024-02-28T08:00:02;98621.91;;;6.07;60.09
21300;BME280;10809;49.476;11.016;2024-02-28T08:02:42;98622.81;;;6.06;59.64
21300;BME280;10809;49.476;11.016;2024-02-28T08:05:13;98627.16;;;6.07;59.59
21300;BME280;10809;49.476;11.016;2024-02-28T08:07:45;98624.53;;;6.07;59.64
21300;BME280;10809;49.476;11.016;2024-02-28T08:10:15;98622.81;;;6.06;59.67
21300;BME280;10809;49.476;11.016;2024-02-28T08:12:46;98633.28;;;6.07;59.83
21300;BME280;10809;49.476;11.016;2024-02-28T08:15:16;98631.59;;;6.07;59.65
21300;BME280;10809;49.476;11.016;2024-02-28T08:17:53;98639.41;;;6.08;59.87
21300;BME280;10809;49.476;11.016;2024-02-28T08:20:24;98637.56;;;6.10;59.88
21300;BME280;10809;49.476;11.016;2024-02-28T08:22:54;98650.72;;;6.10;59.97
21300;BME280;10809;49.476;11.016;2024-02-28T08:25:27;98648.00;;;6.13;59.97
21300;BME280;10809;49.476;11.016;2024-02-28T08:27:58;98656.69;;;6.15;59.99
21300;BME280;10809;49.476;11.016;2024-02-28T08:30:28;98654.88;;;6.17;59.87
21300;BME280;10809;49.476;11.016;2024-02-28T08:32:59;98654.84;;;6.19;59.86
21300;BME280;10809;49.476;11.016;2024-02-28T08:35:29;98654.78;;;6.20;59.90
21300;BME280;10809;49.476;11.016;2024-02-28T08:37:59;98653.81;;;6.23;59.95
21300;BME280;10809;49.476;11.016;2024-02-28T08:40:33;98655.53;;;6.24;59.76
21300;BME280;10809;49.476;11.016;2024-02-28T08:43:03;98669.50;;;6.26;59.72
21300;BME280;10809;49.476;11.016;2024-02-28T08:45:34;98665.97;;;6.27;59.74
21300;BME280;10809;49.476;11.016;2024-02-28T08:48:06;98672.94;;;6.28;59.73
21300;BME280;10809;49.476;11.016;2024-02-28T08:50:37;98679.06;;;6.28;59.64
21300;BME280;10809;49.476;11.016;2024-02-28T08:53:07;98675.53;;;6.29;59.71
21300;BME280;10809;49.476;11.016;2024-02-28T08:55:38;98683.41;;;6.29;59.57
21300;BME280;10809;49.476;11.016;2024-02-28T08:58:08;98681.66;;;6.30;59.57
21300;BME280;10809;49.476;11.016;2024-02-28T09:00:39;98684.28;;;6.30;59.64
21300;BME280;10809;49.476;11.016;2024-02-28T09:03:10;98680.78;;;6.29;59.57
21300;BME280;10809;49.476;11.016;2024-02-28T09:05:40;98683.41;;;6.29;59.50
21300;BME280;10809;49.476;11.016;2024-02-28T09:08:11;98692.22;;;6.28;59.37
21300;BME280;10809;49.476;11.016;2024-02-28T09:10:41;98697.53;;;6.27;59.31
21300;BME280;10809;49.476;11.016;2024-02-28T09:13:11;98689.69;;;6.25;59.59
21300;BME280;10809;49.476;11.016;2024-02-28T09:15:42;98697.59;;;6.25;59.56
21300;BME280;10809;49.476;11.016;2024-02-28T09:18:12;98695.84;;;6.24;59.03
21300;BME280;10809;49.476;11.016;2024-02-28T09:20:43;98699.38;;;6.23;59.45
21300;BME280;10809;49.476;11.016;2024-02-28T09:23:13;98695.94;;;6.21;59.51
21300;BME280;10809;49.476;11.016;2024-02-28T09:25:46;98692.44;;;6.21;59.44
21300;BME280;10809;49.476;11.016;2024-02-28T09:28:17;98697.75;;;6.19;59.52
21300;BME280;10809;49.476;11.016;2024-02-28T09:30:47;98686.44;;;6.17;59.52
21300;BME280;10809;49.476;11.016;2024-02-28T09:33:20;98692.53;;;6.18;59.45
21300;BME280;10809;49.476;11.016;2024-02-28T09:35:51;98691.69;;;6.17;59.69
21300;BME280;10809;49.476;11.016;2024-02-28T09:38:21;98690.78;;;6.18;59.85
21300;BME280;10809;49.476;11.016;2024-02-28T09:40:52;98696.91;;;6.19;59.70
21300;BME280;10809;49.476;11.016;2024-02-28T09:43:29;98695.13;;;6.19;59.73
21300;BME280;10809;49.476;11.016;2024-02-28T09:46:04;98697.69;;;6.21;59.59
21300;BME280;10809;49.476;11.016;2024-02-28T09:48:36;98693.31;;;6.21;59.78
21300;BME280;10809;49.476;11.016;2024-02-28T09:51:08;98691.50;;;6.23;59.84
21300;BME280;10809;49.476;11.016;2024-02-28T09:53:40;98693.16;;;6.26;59.82
21300;BME280;10809;49.476;11.016;2024-02-28T09:56:11;98688.72;;;6.28;59.88
21300;BME280;10809;49.476;11.016;2024-02-28T09:58:42;98699.19;;;6.29;60.03
21300;BME280;10809;49.476;11.016;2024-02-28T10:01:15;98694.69;;;6.33;59.83
21300;BME280;10809;49.476;11.016;2024-02-28T10:03:49;98697.22;;;6.36;59.76
21300;BME280;10809;49.476;11.016;2024-02-28T10:06:20;98695.38;;;6.38;60.15
21300;BME280;10809;49.476;11.016;2024-02-28T10:08:51;98704.03;;;6.41;60.12
21300;BME280;10809;49.476;11.016;2024-02-28T10:11:23;98703.03;;;6.45;60.15
21300;BME280;10809;49.476;11.016;2024-02-28T10:13:54;98700.25;;;6.50;60.19
21300;BME280;10809;49.476;11.016;2024-02-28T10:16:25;98705.34;;;6.54;60.14
21300;BME280;10809;49.476;11.016;2024-02-28T10:18:55;98701.72;;;6.58;60.18
21300;BME280;10809;49.476;11.016;2024-02-28T10:21:26;98701.53;;;6.64;60.23
21300;BME280;10809;49.476;11.016;2024-02-28T10:23:58;98707.47;;;6.69;60.09
21300;BME280;10809;49.476;11.016;2024-02-28T10:26:28;98713.50;;;6.73;60.25
21300;BME280;10809;49.476;11.016;2024-02-28T10:29:03;98709.88;;;6.77;59.94
21300;BME280;10809;49.476;11.016;2024-02-28T10:31:33;98709.78;;;6.80;59.77
21300;BME280;10809;49.476;11.016;2024-02-28T10:34:04;98715.75;;;6.83;59.86
21300;BME280;10809;49.476;11.016;2024-02-28T10:36:36;98720.09;;;6.86;60.03
21300;BME280;10809;49.476;11.016;2024-02-28T10:39:17;98715.50;;;6.91;60.17
21300;BME280;10809;49.476;11.016;2024-02-28T10:41:48;98718.91;;;6.94;60.28
21300;BME280;10809;49.476;11.016;2024-02-28T10:44:20;98723.94;;;7.00;60.14
21300;BME280;10809;49.476;11.016;2024-02-28T10:46:51;98728.13;;;7.06;60.17
21300;BME280;10809;49.476;11.016;2024-02-28T10:49:25;98728.88;;;7.11;59.96
21300;BME280;10809;49.476;11.016;2024-02-28T10:51:56;98717.34;;;7.13;59.99
21300;BME280;10809;49.476;11.016;2024-02-28T10:54:29;98712.03;;;7.15;59.61
21300;BME280;10809;49.476;11.016;2024-02-28T10:57:01;98727.78;;;7.16;59.62
21300;BME280;10809;49.476;11.016;2024-02-28T10:59:33;98725.97;;;7.18;59.68
21300;BME280;10809;49.476;11.016;2024-02-28T11:02:06;98730.31;;;7.19;59.49
21300;BME280;10809;49.476;11.016;2024-02-28T11:04:36;98729.47;;;7.19;59.51
21300;BME280;10809;49.476;11.016;2024-02-28T11:07:10;98730.25;;;7.21;59.72
21300;BME280;10809;49.476;11.016;2024-02-28T11:09:40;98734.69;;;7.20;59.50
21300;BME280;10809;49.476;11.016;2024-02-28T11:12:24;98729.41;;;7.20;59.36
21300;BME280;10809;49.476;11.016;2024-02-28T11:15:00;98740.84;;;7.19;59.35
21300;BME280;10809;49.476;11.016;2024-02-28T11:17:32;98737.44;;;7.17;59.24
21300;BME280;10809;49.476;11.016;2024-02-28T11:20:12;98738.31;;;7.16;59.30
21300;BME280;10809;49.476;11.016;2024-02-28T11:22:43;98741.88;;;7.15;59.62
21300;BME280;10809;49.476;11.016;2024-02-28T11:25:13;98733.97;;;7.15;59.34
21300;BME280;10809;49.476;11.016;2024-02-28T11:27:48;98743.63;;;7.15;59.41
21300;BME280;10809;49.476;11.016;2024-02-28T11:30:19;98740.16;;;7.14;59.27
21300;BME280;10809;49.476;11.016;2024-02-28T11:32:56;98742.81;;;7.14;59.61
21300;BME280;10809;49.476;11.016;2024-02-28T11:35:29;98741.88;;;7.15;59.61
21300;BME280;10809;49.476;11.016;2024-02-28T11:37:59;98736.56;;;7.17;59.76
21300;BME280;10809;49.476;11.016;2024-02-28T11:40:30;98741.75;;;7.18;59.70
21300;BME280;10809;49.476;11.016;2024-02-28T11:43:00;98741.72;;;7.20;59.84
21300;BME280;10809;49.476;11.016;2024-02-28T11:45:39;98740.72;;;7.22;59.79
21300;BME280;10809;49.476;11.016;2024-02-28T11:48:10;98746.81;;;7.24;59.59
21300;BME280;10809;49.476;11.016;2024-02-28T11:50:40;98746.75;;;7.26;59.70
21300;BME280;10809;49.476;11.016;2024-02-28T11:53:11;98744.03;;;7.29;59.94
21300;BME280;10809;49.476;11.016;2024-02-28T11:55:41;98740.38;;;7.33;59.62
21300;BME280;10809;49.476;11.016;2024-02-28T11:58:13;98747.31;;;7.35;59.86
21300;BME280;10809;49.476;11.016;2024-02-28T12:00:50;98742.78;;;7.39;59.63
21300;BME280;10809;49.476;11.016;2024-02-28T12:03:22;98737.41;;;7.42;59.74
21300;BME280;10809;49.476;11.016;2024-02-28T12:05:56;98743.41;;;7.45;60.18
21300;BME280;10809;49.476;11.016;2024-02-28T12:08:28;98744.13;;;7.50;59.79
21300;BME280;10809;49.476;11.016;2024-02-28T12:11:08;98733.47;;;7.53;59.98
21300;BME280;10809;49.476;11.016;2024-02-28T12:13:44;98744.72;;;7.58;60.13
21300;BME280;10809;49.476;11.016;2024-02-28T12:16:14;98751.50;;;7.64;60.12
21300;BME280;10809;49.476;11.016;2024-02-28T12:18:47;98742.56;;;7.68;59.92
21300;BME280;10809;49.476;11.016;2024-02-28T12:21:19;98745.03;;;7.72;60.07
21300;BME280;10809;49.476;11.016;2024-02-28T12:23:50;98748.38;;;7.77;59.85
21300;BME280;10809;49.476;11.016;2024-02-28T12:26:27;98733.31;;;7.81;59.58
21300;BME280;10809;49.476;11.016;2024-02-28T12:28:57;98732.25;;;7.85;59.75
21300;BME280;10809;49.476;11.016;2024-02-28T12:31:28;98725.09;;;7.89;59.62
21300;BME280;10809;49.476;11.016;2024-02-28T12:33:59;98724.19;;;7.90;59.26
21300;BME280;10809;49.476;11.016;2024-02-28T12:36:29;98724.06;;;7.93;59.63
21300;BME280;10809;49.476;11.016;2024-02-28T12:39:01;98728.44;;;7.94;59.37
21300;BME280;10809;49.476;11.016;2024-02-28T12:41:31;98729.28;;;7.94;59.48
21300;BME280;10809;49.476;11.016;2024-02-28T12:44:02;98729.22;;;7.96;59.30
21300;BME280;10809;49.476;11.016;2024-02-28T12:46:33;98729.22;;;7.96;59.35
21300;BME280;10809;49.476;11.016;2024-02-28T12:49:04;98728.25;;;7.98;59.46
21300;BME280;10809;49.476;11.016;2024-02-28T12:51:42;98737.00;;;7.99;59.17
21300;BME280;10809;49.476;11.016;2024-02-28T12:54:14;98730.84;;;8.00;59.19
21300;BME280;10809;49.476;11.016;2024-02-28T12:56:45;98728.19;;;8.00;58.98
21300;BME280;10809;49.476;11.016;2024-02-28T12:59:15;98723.81;;;7.99;59.26
21300;BME280;10809;49.476;11.016;2024-02-28T13:01:49;98723.75;;;8.00;59.11
21300;BME280;10809;49.476;11.016;2024-02-28T13:04:19;98717.66;;;8.00;59.21
21300;BME280;10809;49.476;11.016;2024-02-28T13:06:50;98724.63;;;8.01;59.24
21300;BME280;10809;49.476;11.016;2024-02-28T13:09:21;98720.22;;;8.01;59.23
21300;BME280;10809;49.476;11.016;2024-02-28T13:11:53;98721.88;;;8.04;59.36
21300;BME280;10809;49.476;11.016;2024-02-28T13:14:24;98716.53;;;8.05;59.50
21300;BME280;10809;49.476;11.016;2024-02-28T13:16:54;98724.41;;;8.07;59.64
21300;BME280;10809;49.476;11.016;2024-02-28T13:19:25;98726.91;;;8.10;59.07